createdAt,value
2022-10-24T00:08:14.518Z,13.92
2022-10-24T00:18:15.930Z,13.74
2022-10-24T00:28:17.485Z,13.69
2022-10-24T00:38:18.885Z,13.57
2022-10-24T00:48:20.357Z,13.46
2022-10-24T00:58:22.070Z,13.34
2022-10-24T01:08:23.372Z,13.19
2022-10-24T01:18:24.810Z,13.13
2022-10-24T01:28:26.217Z,13.01
2022-10-24T01:38:27.599Z,12.93
2022-10-24T01:48:28.926Z,12.91
2022-10-24T01:58:30.234Z,12.89
2022-10-24T02:08:31.476Z,12.86
2022-10-24T02:18:32.792Z,12.82
2022-10-24T02:28:34.333Z,12.83
2022-10-24T02:38:35.692Z,12.82
2022-10-24T02:48:37.005Z,12.85
2022-10-24T02:58:38.268Z,12.79
2022-10-24T03:08:39.620Z,12.76
2022-10-24T03:18:40.934Z,12.78
2022-10-24T03:28:42.457Z,12.81
2022-10-24T03:38:43.830Z,12.88
2022-10-24T03:48:45.158Z,12.97
2022-10-24T03:58:46.529Z,12.96
2022-10-24T04:08:47.843Z,12.99
2022-10-24T04:18:49.155Z,12.97
2022-10-24T04:28:51.078Z,12.98
2022-10-24T04:38:52.419Z,13.09
2022-10-24T04:48:53.813Z,13.12
2022-10-24T04:58:55.186Z,13.15
2022-10-24T05:08:56.532Z,13.16
2022-10-24T05:18:57.851Z,13.14
2022-10-24T05:28:59.413Z,13.18
2022-10-24T05:39:00.767Z,13.24
2022-10-24T05:49:02.076Z,13.39
2022-10-24T05:59:03.821Z,13.54
2022-10-24T06:09:05.164Z,13.82
2022-10-24T06:19:06.484Z,13.82
2022-10-24T06:29:07.964Z,14.02
2022-10-24T06:39:09.386Z,14.09
2022-10-24T06:49:10.736Z,14.31
2022-10-24T06:59:11.999Z,14.43
2022-10-24T07:09:25.408Z,14.47
2022-10-24T07:19:26.889Z,14.48
2022-10-24T07:29:28.830Z,14.55
2022-10-24T07:39:30.264Z,14.80
2022-10-24T07:49:33.696Z,15.06
2022-10-24T07:59:42.223Z,15.27
2022-10-24T08:09:44.082Z,15.43
2022-10-24T08:19:45.669Z,15.49
2022-10-24T08:29:47.223Z,15.53
2022-10-24T08:39:48.658Z,15.62
2022-10-24T08:49:50.703Z,15.85
2022-10-24T08:59:52.358Z,15.96
2022-10-24T09:09:53.772Z,15.92
2022-10-24T09:30:33.057Z,15.89
2022-10-24T09:40:42.279Z,16.08
2022-10-24T10:01:01.221Z,16.35
2022-10-24T10:11:02.781Z,16.50
2022-10-24T10:21:04.218Z,16.77
2022-10-24T10:31:05.561Z,16.79
2022-10-24T10:41:06.946Z,16.93
2022-10-24T10:51:08.594Z,17.35
2022-10-24T11:01:10.138Z,17.72
2022-10-24T11:11:11.670Z,17.61
2022-10-24T11:21:13.097Z,18.13
2022-10-24T11:31:14.497Z,18.69
2022-10-24T11:41:15.883Z,18.60
2022-10-24T11:51:17.411Z,18.86
2022-10-24T12:01:18.941Z,18.92
2022-10-24T12:11:20.294Z,18.77
2022-10-24T12:21:25.724Z,19.02
2022-10-24T12:31:28.014Z,19.14
2022-10-24T12:41:29.361Z,19.06
2022-10-24T12:51:31.030Z,19.77
2022-10-24T13:01:35.400Z,19.82
2022-10-24T13:11:36.911Z,19.86
2022-10-24T13:21:39.599Z,19.98
2022-10-24T13:31:43.117Z,19.77
2022-10-24T13:41:44.676Z,20.00
2022-10-24T13:51:46.120Z,19.96
2022-10-24T14:01:47.720Z,19.46
2022-10-24T14:11:49.113Z,19.13
2022-10-24T14:21:50.375Z,19.26
2022-10-24T14:31:51.806Z,19.13
2022-10-24T14:41:53.398Z,19.19
2022-10-24T14:51:55.021Z,19.39
2022-10-24T15:01:57.395Z,18.98
2022-10-24T15:11:58.796Z,19.06
2022-10-24T15:22:00.171Z,18.97
2022-10-24T15:32:01.883Z,18.64
2022-10-24T15:52:04.539Z,17.86
2022-10-24T16:02:05.968Z,17.65
2022-10-24T16:12:07.492Z,17.50
2022-10-24T16:22:08.946Z,17.30
2022-10-24T16:32:11.208Z,17.18
2022-10-24T16:42:12.585Z,17.24
2022-10-24T16:52:14.027Z,17.04
2022-10-24T17:02:15.465Z,16.53
2022-10-24T17:12:16.856Z,16.35
2022-10-24T17:22:18.252Z,16.30
2022-10-24T17:32:19.751Z,15.94
2022-10-24T17:42:21.307Z,15.83
2022-10-24T17:52:22.592Z,15.64
2022-10-24T18:02:24.099Z,15.45
2022-10-24T18:12:25.463Z,15.36
2022-10-24T18:22:26.790Z,15.07
2022-10-24T18:32:28.323Z,14.68
2022-10-24T18:42:29.574Z,14.37
2022-10-24T18:52:30.856Z,14.08
2022-10-24T19:02:32.236Z,13.94
2022-10-24T19:12:33.568Z,13.83
2022-10-24T19:22:35.158Z,13.93
2022-10-24T19:32:36.766Z,13.98
2022-10-24T19:42:38.161Z,14.00
2022-10-24T19:52:39.517Z,14.02
2022-10-24T20:02:41.914Z,13.84
2022-10-24T20:12:43.331Z,13.74
2022-10-24T20:22:45.218Z,13.56
2022-10-24T20:32:46.862Z,13.49
2022-10-24T20:42:49.692Z,13.28
2022-10-24T20:52:51.043Z,13.16
2022-10-24T21:02:52.469Z,13.01
2022-10-24T21:12:54.417Z,12.94
2022-10-24T21:22:55.992Z,12.96
2022-10-24T21:32:57.304Z,12.91
2022-10-24T21:42:58.636Z,12.80
2022-10-24T21:52:59.979Z,12.68
2022-10-24T22:03:01.306Z,12.66
2022-10-24T22:13:02.643Z,12.62
2022-10-24T22:23:05.206Z,12.52
2022-10-24T22:33:06.549Z,12.41
2022-10-24T22:43:07.869Z,12.31
2022-10-24T22:53:09.377Z,12.16
2022-10-24T23:03:10.805Z,12.11
2022-10-24T23:13:12.486Z,11.96
2022-10-24T23:23:28.251Z,11.80
2022-10-24T23:33:30.826Z,11.68
2022-10-24T23:43:32.535Z,11.69
2022-10-24T23:53:33.860Z,11.73
